Relevés horaires Les Attelas (Suisse)


Relevés horaires à Les Attelas - Lundi 04 Janv. 2016
Heure UTC1 Température [°C] Vent [km/h] Hum. [%] Pres.4 [hPa] Visi. [Km] Nébu. [octa] Préc.5 [mm] Cond.
2m. Res. Ros. Dir.2 Vit. Moy. Raf.3
23:00 -7.8 -16.6 -7.8 S 29.6 33.3 46.3 100 700(-0.5/3h) -- -- -- --
22:00 -9.1 -14.6 -9.9 SSO 11.1 16.7 25.9 94 700(0.0/3h) -- -- -- --
21:00 -9.1 -16.4 -11.2 SO 18.5 29.6 46.3 85 700(0.2/3h) -- -- -- --
20:00 -9.8 -16.9 -11.3 SSO 16.7 27.8 44.4 89 700(0.4/3h) -- -- -- --
19:00 -9.5 -18.8 -12.2 SSO 29.6 29.6 46.3 81 700(0.5/3h) -- -- -- --
18:00 -10.2 -18.9 -11.2 SO 24.1 29.6 51.9 92 700(0.6/3h) -- -- -- --
17:00 -10.1 -19 -10.1 SO 25.9 29.6 48.2 100 700(0.7/3h) -- -- -- --
16:00 -9.9 -17.4 -10.3 SO 18.5 25.9 44.4 97 700(0.4/3h) -- -- -- --
15:00 -9.4 -16.8 -10.8 OSO 18.5 29.6 51.9 89 700(0.2/3h) -- -- -- --
14:00 -9.3 -17.4 -9.3 SO 22.2 24.1 44.4 100 700(-0.3/3h) -- -- -- --
13:00 -9.3 -14.8 -9.3 O 11.1 24.1 44.4 100 700(-0.6/3h) -- -- -- --
12:00 -9.2 -16.9 -9.2 SO 20.4 37.0 63.0 100 700(-0.6/3h) -- -- -- --
11:00 -8.6 -15.8 -8.6 OSO 18.5 18.5 50.0 100 700(0.3/3h) -- -- -- --
10:00 -9.3 -17.4 -9.3 SO 22.2 22.2 37.0 100 700(0.4/3h) -- -- -- --
09:00 -9.1 -17.5 -9.1 SO 24.1 37.0 63.0 100 700(0.1/3h) -- -- -- --
08:00 -9.1 -18.3 -9.1 SSO 29.6 29.6 57.4 100 700(-0.6/3h) -- -- -- --
07:00 -9.5 -18.3 -9.5 SO 25.9 37.0 63.0 100 700(-0.1/3h) -- -- -- --
06:00 -8.9 -19.4 -8.9 SO 40.7 44.4 81.5 100 700(-0.2/3h) -- -- -- --
05:00 -8.2 -17.6 -8.2 SO 33.3 33.3 61.1 100 700(-0.3/3h) -- -- -- --
04:00 -8.0 -16.3 -8.0 OSO 25.9 33.3 61.1 100 700(-1.0/3h) -- -- -- --
03:00 -7.6 -16.3 -7.6 SO 29.6 44.4 68.5 100 700(-0.9/3h) -- -- -- --
02:00 -7.6 -17.4 -7.6 SO 38.9 38.9 59.3 100 700(-1.6/3h) -- -- -- --
01:00 -7.7 -16.5 -7.7 S 29.6 31.5 53.7 100 700(-1.3/3h) -- -- -- --
00:00 -6.7 -15.6 -6.7 S 33.3 33.3 50.0 100 700(-1.9/3h) -- -- -- --

1 Coordinated Universal Time. Actuellement il est 08:00 locale et 06:00 UTC.

2 Le vent souffle depuis la direction indiquée vers la direction oposée.

3 Les rafales max. sont disponible 40 min après l'heure du relevé.

4 Pour les stations d'altitude (plus de 600m) le géopotentiel du niveau le plus proche de la pression obligatoire est indiqué.

5 Les stations disposant d'un diffuseur peuvent indiquer "trace". Cela signifie que des précipitations ont touchés le sol mais que la quantité est inférieure à 0.1 mm.

Copyright

Les données affichées sur cette page sont la propriété exclusive de Météo Suisse.

Récapitulatif de la journée
Température [°C] Vent [km/h] Ensoleillement4 [h] Precipitations totale5 [mm] Pression [Hpa]
Min1 Max.2 Moy.3 Max. Min Max.
-9.7 -8.6 30.8 81.5 1 h 18 min 0 700.0 700.0

1 Température minimale relevée entre 18:00 UTC la veille et 18:00 UTC le jour donné.

2 Température maximale relevée entre 06:00 UTC le jour donné et 06:00 UTC le lendemain.

3 Vent moyen de la journée basé sur les relevés horaires.

4 Ensoleillement en heures relevé entre 06:00 UTC la veille et 06:00 UTC le jour donné.

5 Précipitations totales tombées entre 06:00 UTC la jour donné et 06:00 UTC le lendemain.

Graphiques horaires